NCAR-RAP Real-Time Weather Data

Output produced by METARs form (08 May 2021  17:12 UTC)
found at http://weather.rap.ucar.edu/surface/
 
KSLC 081654Z 23010G15KT 10SM FEW055 FEW070 FEW200 11/M04 A3013 RMK AO2 SLP179 T01111044
KSLC 081554Z 27012KT 10SM FEW055 FEW070 FEW200 11/M04 A3013 RMK AO2 SLP177 T01061039
KSLC 081454Z 29014KT 10SM FEW075 FEW090 11/M06 A3012 RMK AO2 SLP171 T01061056 51020
KSLC 081354Z 32010KT 10SM FEW075 FEW090 10/M07 A3010 RMK AO2 SLP165 T01001067
KSLC 081254Z 35008KT 10SM FEW070 SCT090 08/M04 A3007 RMK AO2 SLP155 T00831039
KSLC 081154Z 34011KT 10SM FEW070 BKN085 10/M05 A3005 RMK AO2 SLP137 60000 70001 T01001050 10133 20100 52020
KSLC 081054Z 33014KT 10SM FEW055 BKN070 BKN100 11/M03 A3003 RMK AO2 SLP128 T01061033
KSLC 080954Z 32010KT 10SM FEW055 BKN065 BKN080 12/01 A3000 RMK AO2 SLP118 T01220006
KSLC 080854Z 35013KT 10SM SCT060 BKN080 BKN110 12/06 A2998 RMK AO2 SLP111 P0000 60000 T01170056 53012
KSLC 080754Z 35010KT 10SM FEW060 BKN070 12/07 A2997 RMK AO2 SLP103 T01170072
KSLC 080654Z 31006KT 10SM FEW110 BKN150 13/07 A2995 RMK AO2 SLP093 T01330072 403000133
KSLC 080554Z 20006KT 10SM FEW110 OVC150 13/08 A2994 RMK AO2 RAE06 SLP093 P0000 60001 T01330078 10244 20133 50009
KSLC 080454Z 09005KT 10SM -RA BKN055 BKN070 13/07 A2995 RMK AO2 PK WND 31026/0420 RAB23 PRESFR SLP096 P0001 T01330067
KSLC 080354Z 32010KT 10SM SCT065 BKN095 BKN130 16/03 A2995 RMK AO2 SLP094 VCSH T01610033
KSLC 080254Z 02016KT 10SM BKN075 OVC110 16/04 A2991 RMK AO2 PK WND 01028/0209 RAB01E19 SLP083 SH DSNT SE-W P0000 60000 T01610044 51047
KSLC 080154Z AUTO 01020G27KT 10SM OVC080 17/06 A2991 RMK AO2 PK WND 30034/0055 RAB26E52 SLP084 P0000 T01670061
KSLC 080115Z 36021KT 6SM HZ FEW011 BKN095 OVC150 18/05 A2988 RMK AO2 PK WND 30034/0055 SH DSNT E AND SW-N T01830050
KSLC 080101Z 33024G34KT 2SM HZ SCT015 OVC095 19/05 A2986 RMK AO2 PK WND 30034/0055 SH DSNT SW-N T01940050
KSLC 080054Z 31024G33KT 2SM HZ BKN015 BKN090 OVC150 19/06 A2986 RMK AO2 PK WND 33038/0035 SFC VIS 2 1/2 PRESRR SLP066 SH DSNT SW-N T01940056
KSLC 080025Z 31020G31KT 2 1/2SM HZ BKN017 BKN100 OVC150 21/04 A2981 RMK AO2 PK WND 32036/0013 SFC VIS 3 PRESRR VIRGA SH DSNT W-N T02060044
KSLC 080005Z 30027G35KT 2 1/2SM HZ FEW012 BKN090TCU OVC160 22/06 A2977 RMK AO2 PK WND 28035/2358 VIS 1 1/2V5 PRESRR VIRGA TCU W T02220056
KSLC 080003Z 30025G35KT 3SM HZ FEW012 BKN090TCU BKN160 23/06 A2977 RMK AO2 PK WND 28035/2358 PRESRR VIRGA TCU W T02280056
KSLC 072354Z 29015G23KT 10SM SCT090TCU BKN150 BKN200 24/00 A2976 RMK AO2 SLP024 VIRGA TCU SW-W T02440000 10300 20244 55008
KSLC 072254Z 34015KT 10SM SCT100TCU BKN150 BKN200 26/M01 A2974 RMK AO2 SLP017 VIRGA TCU OHD AND DSNT ALQDS T02561011
KSLC 072154Z 01011KT 10SM SCT100TCU BKN130 BKN150 25/M01 A2976 RMK AO2 SLP023 VIRGA TCU OHD AND DSNT ALQDS T02501006
KSLC 072054Z 36014KT 10SM SCT110TCU BKN150 BKN250 26/M01 A2978 RMK AO2 PK WND 24026/2016 WSHFT 2015 SLP033 VIRGA CB DSNT NW TCU SE T02561006 56015
KSLC 072030Z 31015KT 10SM SCT100 BKN180 BKN250 28/M03 A2979 RMK AO2 PK WND 24026/2016 WSHFT 2015 TCU DSNT NW T02781028
KSLC 072023Z COR 32016G26KT 10SM FEW100 SCT180 BKN250 28/M03 A2978 RMK AO2 PK WND 24026/2016 TCU DSNT NW T02831028
KSLC 071954Z VRB03KT 10SM SCT110 SCT180 BKN250 28/M04 A2979 RMK AO2 SLP033 VIRGA TCU DSNT NW CCSL OHD T02781039
KSLC 071854Z VRB03KT 10SM FEW100 SCT150 SCT250 28/M03 A2982 RMK AO2 SLP041 T02831033
KSLC 071815Z COR 27014KT 10SM FEW100 FEW150 SCT250 28/M03 A2983 RMK AO2 PK WND 16032/1741 SLP045 ACSL DSNT NE T02781033 10283 20189 58009
KSLC 071754Z 17017G26KT 10SM FEW100 FEW150 SCT250 28/M03 A2983 RMK AO2 PK WND 16032/1741 SLP045 ACSL DSNT NE T02781033 10283 20189 58009
KSLC 071654Z 17017G28KT 10SM FEW100 SCT170 SCT250 27/M03 A2985 RMK AO2 PK WND 18028/1634 SLP051 T02721033
KSLC 071554Z 17021G26KT 10SM FEW110 SCT180 SCT250 26/M03 A2986 RMK AO2 PK WND 16028/1509 SLP055 CCSL OHD T02561028
KSLC 071454Z 17017G23KT 10SM FEW110 SCT160 BKN250 24/M04 A2986 RMK AO2 SLP058 T02391039 58005
KSLC 071354Z 16016KT 10SM SCT140 SCT200 BKN250 22/M04 A2987 RMK AO2 SLP060 T02221044
KSLC 071254Z 13009KT 10SM FEW090 BKN150 19/M03 A2988 RMK AO2 SLP064 T01891033
KSLC 071154Z 14007KT 10SM FEW070 SCT200 20/M04 A2988 RMK AO2 SLP062 T02001039 10222 20189 58003
KSLC 071054Z COR 16011KT 10SM SCT250 22/M04 A2989 RMK AO2 SLP063 T02171044
KSLC 070954Z 16008KT 10SM FEW120 SCT250 20/M03 A2989 RMK AO2 SLP063 T02001028
KSLC 070854Z 14009KT 10SM FEW120 SCT250 19/M01 A2989 RMK AO2 SLP065 T01941011 58008
KSLC 070754Z 13009KT 10SM SCT090 SCT250 19/M02 A2991 RMK AO2 SLP072 T01941022
KSLC 070654Z 17008KT 10SM CLR 21/M03 A2991 RMK AO2 SLP075 T02061033 403060094
KSLC 070554Z 14009KT 10SM FEW130 FEW250 21/M02 A2992 RMK AO2 SLP080 T02111017 10300 20211 58004
KSLC 070454Z 16009KT 10SM FEW130 SCT250 21/M03 A2992 RMK AO2 SLP083 T02111033
KSLC 070354Z 15008KT 10SM FEW130 SCT250 23/M03 A2994 RMK AO2 SLP089 T02281028
KSLC 070254Z 00000KT 10SM FEW120 SCT170 BKN250 23/01 A2993 RMK AO2 SLP091 T02330006 56012
KSLC 070154Z 35006KT 10SM FEW120 FEW180 SCT240 26/01 A2994 RMK AO2 SLP092 T02560006
KSLC 070054Z 36008KT 10SM FEW110 SCT160 BKN240 27/M01 A2995 RMK AO2 SLP099 T02721011
KSLC 062354Z 35005KT 10SM FEW100 SCT170 BKN240 30/M06 A2997 RMK AO2 SLP104 ACSL DSNT E T03001061 10306 20239 56025
KSLC 062254Z COR 30009 10SM FEW110 FEW180 SCT240 29/M06 A2999 RMK AO2 SLP111 T02941056
KSLC 062154Z VRB03KT 10SM FEW100 FEW170 SCT230 29/M10 A3003 RMK AO2 SLP122 T02941100
KSLC 062054Z 17007KT 130V210 10SM FEW110 FEW170 FEW220 30/M04 A3006 RMK AO2 SLP132 T03001044 56025
KSLC 061954Z VRB05KT 10SM FEW100 FEW220 28/M05 A3008 RMK AO2 SLP141 T02831050
KSLC 061854Z VRB04KT 10SM FEW100 FEW200 27/M04 A3011 RMK AO2 SLP153 T02671039
KSLC 061754Z VRB04KT 10SM FEW090 24/M05 A3014 RMK AO2 SLP166 T02391050 10244 20094 58015